sensor_id;sensor_type;location;lat;lon;timestamp;P1;durP1;ratioP1;P2;durP2;ratioP2
295;SDS011;132;48.770;9.200;2023-04-24T00:02:19;4.70;;;1.70;;
295;SDS011;132;48.770;9.200;2023-04-24T00:04:46;3.15;;;1.70;;
295;SDS011;132;48.770;9.200;2023-04-24T00:07:12;1.90;;;1.60;;
295;SDS011;132;48.770;9.200;2023-04-24T00:09:40;2.90;;;1.73;;
295;SDS011;132;48.770;9.200;2023-04-24T00:12:06;3.40;;;1.70;;
295;SDS011;132;48.770;9.200;2023-04-24T00:14:33;3.17;;;1.90;;
295;SDS011;132;48.770;9.200;2023-04-24T00:17:01;1.80;;;1.60;;
295;SDS011;132;48.770;9.200;2023-04-24T00:19:28;5.22;;;1.77;;
295;SDS011;132;48.770;9.200;2023-04-24T00:21:55;2.67;;;1.90;;
295;SDS011;132;48.770;9.200;2023-04-24T00:24:22;7.13;;;1.70;;
295;SDS011;132;48.770;9.200;2023-04-24T00:26:48;2.35;;;1.83;;
295;SDS011;132;48.770;9.200;2023-04-24T00:29:15;3.47;;;1.67;;
295;SDS011;132;48.770;9.200;2023-04-24T00:31:41;2.40;;;1.60;;
295;SDS011;132;48.770;9.200;2023-04-24T00:34:09;3.03;;;1.73;;
295;SDS011;132;48.770;9.200;2023-04-24T00:36:37;4.55;;;1.73;;
295;SDS011;132;48.770;9.200;2023-04-24T00:39:04;2.10;;;1.60;;
295;SDS011;132;48.770;9.200;2023-04-24T00:41:31;4.13;;;1.80;;
295;SDS011;132;48.770;9.200;2023-04-24T00:43:58;3.95;;;1.60;;
295;SDS011;132;48.770;9.200;2023-04-24T00:46:25;6.18;;;1.85;;
295;SDS011;132;48.770;9.200;2023-04-24T00:48:51;1.75;;;1.67;;
295;SDS011;132;48.770;9.200;2023-04-24T00:51:18;3.42;;;1.80;;
295;SDS011;132;48.770;9.200;2023-04-24T00:53:45;1.63;;;1.40;;
295;SDS011;132;48.770;9.200;2023-04-24T00:56:12;3.67;;;1.73;;
295;SDS011;132;48.770;9.200;2023-04-24T00:58:39;2.30;;;1.63;;
295;SDS011;132;48.770;9.200;2023-04-24T01:01:07;2.25;;;1.77;;
295;SDS011;132;48.770;9.200;2023-04-24T01:03:35;3.08;;;1.85;;
295;SDS011;132;48.770;9.200;2023-04-24T01:06:03;3.65;;;1.70;;
295;SDS011;132;48.770;9.200;2023-04-24T01:08:31;2.28;;;1.60;;
295;SDS011;132;48.770;9.200;2023-04-24T01:11:00;1.83;;;1.55;;
295;SDS011;132;48.770;9.200;2023-04-24T01:13:31;3.83;;;1.63;;
295;SDS011;132;48.770;9.200;2023-04-24T01:15:59;2.00;;;1.50;;
295;SDS011;132;48.770;9.200;2023-04-24T01:18:27;4.75;;;1.80;;
295;SDS011;132;48.770;9.200;2023-04-24T01:20:57;2.72;;;1.80;;
295;SDS011;132;48.770;9.200;2023-04-24T01:23:26;2.80;;;1.60;;
295;SDS011;132;48.770;9.200;2023-04-24T01:25:53;4.50;;;1.60;;
295;SDS011;132;48.770;9.200;2023-04-24T01:28:20;2.30;;;1.80;;
295;SDS011;132;48.770;9.200;2023-04-24T01:30:48;1.60;;;1.60;;
295;SDS011;132;48.770;9.200;2023-04-24T01:33:15;5.68;;;2.00;;
295;SDS011;132;48.770;9.200;2023-04-24T01:35:42;3.80;;;1.80;;
295;SDS011;132;48.770;9.200;2023-04-24T01:38:09;1.77;;;1.63;;
295;SDS011;132;48.770;9.200;2023-04-24T01:40:36;1.75;;;1.70;;
295;SDS011;132;48.770;9.200;2023-04-24T01:43:03;3.38;;;1.65;;
295;SDS011;132;48.770;9.200;2023-04-24T01:45:30;3.35;;;1.80;;
295;SDS011;132;48.770;9.200;2023-04-24T01:47:57;2.88;;;1.70;;
295;SDS011;132;48.770;9.200;2023-04-24T01:50:25;5.30;;;1.80;;
295;SDS011;132;48.770;9.200;2023-04-24T01:52:52;2.03;;;1.70;;
295;SDS011;132;48.770;9.200;2023-04-24T01:55:18;5.47;;;2.20;;
295;SDS011;132;48.770;9.200;2023-04-24T01:57:45;6.95;;;1.77;;
295;SDS011;132;48.770;9.200;2023-04-24T02:00:12;4.40;;;1.90;;
295;SDS011;132;48.770;9.200;2023-04-24T02:02:39;8.93;;;1.80;;
295;SDS011;132;48.770;9.200;2023-04-24T02:05:07;2.72;;;1.70;;
295;SDS011;132;48.770;9.200;2023-04-24T02:07:36;2.50;;;1.70;;
295;SDS011;132;48.770;9.200;2023-04-24T02:10:03;4.70;;;1.90;;
295;SDS011;132;48.770;9.200;2023-04-24T02:12:32;1.92;;;1.60;;
295;SDS011;132;48.770;9.200;2023-04-24T02:15:00;2.60;;;1.80;;
295;SDS011;132;48.770;9.200;2023-04-24T02:17:26;4.47;;;1.80;;
295;SDS011;132;48.770;9.200;2023-04-24T02:19:53;1.65;;;1.65;;
295;SDS011;132;48.770;9.200;2023-04-24T02:22:20;5.68;;;1.73;;
295;SDS011;132;48.770;9.200;2023-04-24T02:24:47;2.15;;;1.75;;
295;SDS011;132;48.770;9.200;2023-04-24T02:27:15;3.22;;;1.80;;
295;SDS011;132;48.770;9.200;2023-04-24T02:29:42;2.35;;;1.60;;
295;SDS011;132;48.770;9.200;2023-04-24T02:32:09;2.97;;;1.70;;
295;SDS011;132;48.770;9.200;2023-04-24T02:34:38;2.10;;;1.70;;
295;SDS011;132;48.770;9.200;2023-04-24T02:37:04;1.80;;;1.70;;
295;SDS011;132;48.770;9.200;2023-04-24T02:39:31;2.53;;;1.80;;
295;SDS011;132;48.770;9.200;2023-04-24T02:41:57;2.90;;;1.80;;
295;SDS011;132;48.770;9.200;2023-04-24T02:44:24;2.42;;;1.85;;
295;SDS011;132;48.770;9.200;2023-04-24T02:46:51;3.40;;;1.90;;
295;SDS011;132;48.770;9.200;2023-04-24T02:49:17;3.88;;;1.80;;
295;SDS011;132;48.770;9.200;2023-04-24T02:51:44;2.38;;;1.65;;
295;SDS011;132;48.770;9.200;2023-04-24T02:54:11;3.10;;;1.80;;
295;SDS011;132;48.770;9.200;2023-04-24T02:56:37;4.05;;;1.80;;
295;SDS011;132;48.770;9.200;2023-04-24T02:59:06;3.55;;;1.80;;
295;SDS011;132;48.770;9.200;2023-04-24T03:01:32;3.15;;;1.80;;
295;SDS011;132;48.770;9.200;2023-04-24T03:03:59;3.25;;;1.83;;
295;SDS011;132;48.770;9.200;2023-04-24T03:06:26;2.50;;;1.80;;
295;SDS011;132;48.770;9.200;2023-04-24T03:08:52;2.45;;;1.70;;
295;SDS011;132;48.770;9.200;2023-04-24T03:11:20;3.08;;;1.70;;
295;SDS011;132;48.770;9.200;2023-04-24T03:13:46;2.10;;;1.70;;
295;SDS011;132;48.770;9.200;2023-04-24T03:16:13;3.20;;;1.88;;
295;SDS011;132;48.770;9.200;2023-04-24T03:18:40;3.50;;;1.70;;
295;SDS011;132;48.770;9.200;2023-04-24T03:21:08;2.45;;;1.70;;
295;SDS011;132;48.770;9.200;2023-04-24T03:23:35;2.85;;;1.80;;
295;SDS011;132;48.770;9.200;2023-04-24T03:26:01;2.47;;;1.70;;
295;SDS011;132;48.770;9.200;2023-04-24T03:28:30;1.80;;;1.75;;
295;SDS011;132;48.770;9.200;2023-04-24T03:31:03;2.10;;;1.77;;
295;SDS011;132;48.770;9.200;2023-04-24T03:33:33;1.65;;;1.60;;
295;SDS011;132;48.770;9.200;2023-04-24T03:36:02;1.75;;;1.50;;
295;SDS011;132;48.770;9.200;2023-04-24T03:38:36;3.10;;;1.70;;
295;SDS011;132;48.770;9.200;2023-04-24T03:41:19;2.95;;;1.60;;
295;SDS011;132;48.770;9.200;2023-04-24T03:43:50;2.22;;;1.58;;
295;SDS011;132;48.770;9.200;2023-04-24T03:46:17;1.70;;;1.60;;
295;SDS011;132;48.770;9.200;2023-04-24T03:48:50;2.58;;;1.70;;
295;SDS011;132;48.770;9.200;2023-04-24T03:51:20;3.15;;;1.70;;
295;SDS011;132;48.770;9.200;2023-04-24T03:53:50;3.25;;;1.85;;
295;SDS011;132;48.770;9.200;2023-04-24T03:56:19;2.72;;;1.58;;
295;SDS011;132;48.770;9.200;2023-04-24T03:58:46;1.90;;;1.73;;
295;SDS011;132;48.770;9.200;2023-04-24T04:01:13;4.72;;;1.90;;
295;SDS011;132;48.770;9.200;2023-04-24T04:03:49;1.98;;;1.50;;
295;SDS011;132;48.770;9.200;2023-04-24T04:06:19;2.10;;;1.67;;
295;SDS011;132;48.770;9.200;2023-04-24T04:08:48;3.08;;;1.90;;
295;SDS011;132;48.770;9.200;2023-04-24T04:11:17;2.58;;;1.80;;
295;SDS011;132;48.770;9.200;2023-04-24T04:13:45;3.85;;;1.67;;
295;SDS011;132;48.770;9.200;2023-04-24T04:16:15;2.00;;;1.55;;
295;SDS011;132;48.770;9.200;2023-04-24T04:18:46;1.60;;;1.50;;
295;SDS011;132;48.770;9.200;2023-04-24T04:21:14;2.90;;;1.75;;
295;SDS011;132;48.770;9.200;2023-04-24T04:23:41;4.28;;;1.80;;
295;SDS011;132;48.770;9.200;2023-04-24T04:26:14;1.90;;;1.60;;
295;SDS011;132;48.770;9.200;2023-04-24T04:29:01;2.85;;;1.70;;
295;SDS011;132;48.770;9.200;2023-04-24T04:31:29;6.00;;;1.75;;
295;SDS011;132;48.770;9.200;2023-04-24T04:33:59;3.33;;;1.83;;
295;SDS011;132;48.770;9.200;2023-04-24T04:36:27;3.85;;;2.00;;
295;SDS011;132;48.770;9.200;2023-04-24T04:39:02;4.90;;;1.95;;
295;SDS011;132;48.770;9.200;2023-04-24T04:41:50;2.63;;;1.85;;
295;SDS011;132;48.770;9.200;2023-04-24T04:44:19;2.45;;;2.00;;
295;SDS011;132;48.770;9.200;2023-04-24T04:46:46;3.25;;;1.83;;
295;SDS011;132;48.770;9.200;2023-04-24T04:49:25;2.67;;;1.98;;
295;SDS011;132;48.770;9.200;2023-04-24T04:51:54;2.10;;;1.90;;
295;SDS011;132;48.770;9.200;2023-04-24T04:54:24;3.22;;;2.00;;
295;SDS011;132;48.770;9.200;2023-04-24T04:56:51;3.80;;;2.25;;
295;SDS011;132;48.770;9.200;2023-04-24T04:59:18;3.15;;;2.00;;
295;SDS011;132;48.770;9.200;2023-04-24T05:01:46;4.30;;;2.10;;
295;SDS011;132;48.770;9.200;2023-04-24T05:04:14;2.50;;;2.10;;
295;SDS011;132;48.770;9.200;2023-04-24T05:06:41;2.25;;;1.83;;
295;SDS011;132;48.770;9.200;2023-04-24T05:09:09;3.60;;;2.13;;
295;SDS011;132;48.770;9.200;2023-04-24T05:11:45;4.45;;;2.30;;
295;SDS011;132;48.770;9.200;2023-04-24T05:14:12;2.30;;;2.10;;
295;SDS011;132;48.770;9.200;2023-04-24T05:16:40;2.65;;;1.95;;
295;SDS011;132;48.770;9.200;2023-04-24T05:19:08;3.40;;;2.30;;
295;SDS011;132;48.770;9.200;2023-04-24T05:21:38;3.33;;;2.40;;
295;SDS011;132;48.770;9.200;2023-04-24T05:24:05;4.63;;;2.42;;
295;SDS011;132;48.770;9.200;2023-04-24T05:26:46;5.43;;;2.30;;
295;SDS011;132;48.770;9.200;2023-04-24T05:29:17;3.55;;;2.00;;
295;SDS011;132;48.770;9.200;2023-04-24T05:31:44;3.08;;;2.20;;
295;SDS011;132;48.770;9.200;2023-04-24T05:34:14;3.13;;;2.20;;
295;SDS011;132;48.770;9.200;2023-04-24T05:36:44;2.97;;;2.25;;
295;SDS011;132;48.770;9.200;2023-04-24T05:39:10;3.40;;;2.53;;
295;SDS011;132;48.770;9.200;2023-04-24T05:41:37;5.60;;;2.35;;
295;SDS011;132;48.770;9.200;2023-04-24T05:44:04;2.97;;;2.13;;
295;SDS011;132;48.770;9.200;2023-04-24T05:46:31;2.88;;;2.28;;
295;SDS011;132;48.770;9.200;2023-04-24T05:48:58;3.03;;;2.20;;
295;SDS011;132;48.770;9.200;2023-04-24T05:51:24;2.45;;;2.20;;
295;SDS011;132;48.770;9.200;2023-04-24T05:53:51;2.70;;;2.20;;
295;SDS011;132;48.770;9.200;2023-04-24T05:56:18;2.72;;;2.20;;
295;SDS011;132;48.770;9.200;2023-04-24T05:58:46;3.22;;;2.20;;
295;SDS011;132;48.770;9.200;2023-04-24T06:01:13;3.03;;;2.40;;
295;SDS011;132;48.770;9.200;2023-04-24T06:03:42;3.25;;;2.50;;
295;SDS011;132;48.770;9.200;2023-04-24T06:06:08;3.78;;;2.42;;
295;SDS011;132;48.770;9.200;2023-04-24T06:08:35;3.80;;;2.85;;
295;SDS011;132;48.770;9.200;2023-04-24T06:11:02;3.50;;;2.20;;
295;SDS011;132;48.770;9.200;2023-04-24T06:13:29;3.78;;;2.60;;
295;SDS011;132;48.770;9.200;2023-04-24T06:16:13;2.88;;;2.47;;
295;SDS011;132;48.770;9.200;2023-04-24T06:18:44;5.15;;;2.25;;
295;SDS011;132;48.770;9.200;2023-04-24T06:21:15;4.90;;;2.85;;
295;SDS011;132;48.770;9.200;2023-04-24T06:23:42;3.08;;;2.60;;
295;SDS011;132;48.770;9.200;2023-04-24T06:26:08;3.10;;;2.80;;
295;SDS011;132;48.770;9.200;2023-04-24T06:28:35;4.23;;;2.97;;
295;SDS011;132;48.770;9.200;2023-04-24T06:31:01;4.30;;;2.83;;
295;SDS011;132;48.770;9.200;2023-04-24T06:33:28;2.80;;;2.60;;
295;SDS011;132;48.770;9.200;2023-04-24T06:35:55;4.43;;;3.07;;
295;SDS011;132;48.770;9.200;2023-04-24T06:38:22;3.27;;;2.90;;
295;SDS011;132;48.770;9.200;2023-04-24T06:40:49;5.60;;;3.10;;
295;SDS011;132;48.770;9.200;2023-04-24T06:43:16;3.30;;;3.10;;
295;SDS011;132;48.770;9.200;2023-04-24T06:45:43;4.17;;;3.03;;
295;SDS011;132;48.770;9.200;2023-04-24T06:48:11;3.63;;;3.33;;
295;SDS011;132;48.770;9.200;2023-04-24T06:50:37;3.47;;;3.13;;
295;SDS011;132;48.770;9.200;2023-04-24T06:53:04;4.83;;;4.00;;
295;SDS011;132;48.770;9.200;2023-04-24T06:55:31;5.10;;;4.80;;
295;SDS011;132;48.770;9.200;2023-04-24T06:57:57;5.30;;;5.00;;
295;SDS011;132;48.770;9.200;2023-04-24T07:00:25;3.90;;;3.70;;
295;SDS011;132;48.770;9.200;2023-04-24T07:02:51;3.00;;;2.40;;
295;SDS011;132;48.770;9.200;2023-04-24T07:05:18;3.70;;;2.60;;
295;SDS011;132;48.770;9.200;2023-04-24T07:07:49;4.37;;;2.90;;
295;SDS011;132;48.770;9.200;2023-04-24T07:10:17;3.93;;;2.50;;
295;SDS011;132;48.770;9.200;2023-04-24T07:12:44;4.27;;;2.50;;
295;SDS011;132;48.770;9.200;2023-04-24T07:15:10;3.93;;;2.60;;
295;SDS011;132;48.770;9.200;2023-04-24T07:17:39;4.27;;;2.63;;
295;SDS011;132;48.770;9.200;2023-04-24T07:20:09;4.90;;;2.90;;
295;SDS011;132;48.770;9.200;2023-04-24T07:22:37;4.47;;;2.80;;
295;SDS011;132;48.770;9.200;2023-04-24T07:25:04;5.10;;;3.00;;
295;SDS011;132;48.770;9.200;2023-04-24T07:27:31;4.63;;;2.70;;
295;SDS011;132;48.770;9.200;2023-04-24T07:29:58;3.13;;;2.60;;
295;SDS011;132;48.770;9.200;2023-04-24T07:32:24;5.87;;;2.67;;
295;SDS011;132;48.770;9.200;2023-04-24T07:34:51;4.50;;;2.57;;
295;SDS011;132;48.770;9.200;2023-04-24T07:37:18;3.63;;;2.60;;
295;SDS011;132;48.770;9.200;2023-04-24T07:39:45;14.83;;;14.07;;
295;SDS011;132;48.770;9.200;2023-04-24T07:42:12;4.40;;;4.10;;
295;SDS011;132;48.770;9.200;2023-04-24T07:44:39;14.77;;;14.00;;
295;SDS011;132;48.770;9.200;2023-04-24T07:47:07;31.40;;;29.87;;
295;SDS011;132;48.770;9.200;2023-04-24T07:49:34;20.07;;;19.07;;
295;SDS011;132;48.770;9.200;2023-04-24T07:52:14;26.93;;;25.60;;
295;SDS011;132;48.770;9.200;2023-04-24T07:54:43;42.73;;;40.63;;
295;SDS011;132;48.770;9.200;2023-04-24T07:57:24;7.40;;;2.70;;
295;SDS011;132;48.770;9.200;2023-04-24T07:59:51;3.70;;;2.80;;
295;SDS011;132;48.770;9.200;2023-04-24T08:02:20;65.97;;;62.77;;
295;SDS011;132;48.770;9.200;2023-04-24T08:04:52;5.87;;;2.20;;
295;SDS011;132;48.770;9.200;2023-04-24T08:07:21;2.43;;;2.03;;
295;SDS011;132;48.770;9.200;2023-04-24T08:09:59;4.20;;;2.43;;
295;SDS011;132;48.770;9.200;2023-04-24T08:12:27;4.97;;;2.30;;
295;SDS011;132;48.770;9.200;2023-04-24T08:14:54;3.30;;;2.43;;
295;SDS011;132;48.770;9.200;2023-04-24T08:17:21;10.33;;;9.80;;
295;SDS011;132;48.770;9.200;2023-04-24T08:19:48;7.00;;;6.60;;
295;SDS011;132;48.770;9.200;2023-04-24T08:22:43;12.67;;;12.00;;
295;SDS011;132;48.770;9.200;2023-04-24T08:25:15;3.70;;;2.60;;
295;SDS011;132;48.770;9.200;2023-04-24T08:27:44;7.00;;;6.60;;
295;SDS011;132;48.770;9.200;2023-04-24T08:30:14;3.27;;;3.07;;
295;SDS011;132;48.770;9.200;2023-04-24T08:32:47;7.83;;;2.20;;
295;SDS011;132;48.770;9.200;2023-04-24T08:35:16;14.37;;;13.63;;
295;SDS011;132;48.770;9.200;2023-04-24T08:37:43;4.73;;;3.20;;
295;SDS011;132;48.770;9.200;2023-04-24T08:40:13;3.50;;;3.30;;
295;SDS011;132;48.770;9.200;2023-04-24T08:43:12;4.40;;;2.23;;
295;SDS011;132;48.770;9.200;2023-04-24T08:45:59;2.97;;;2.10;;
295;SDS011;132;48.770;9.200;2023-04-24T08:49:17;2.67;;;2.13;;
295;SDS011;132;48.770;9.200;2023-04-24T08:51:44;3.70;;;2.47;;
295;SDS011;132;48.770;9.200;2023-04-24T08:54:15;2.67;;;2.30;;
295;SDS011;132;48.770;9.200;2023-04-24T08:56:43;4.33;;;2.53;;
295;SDS011;132;48.770;9.200;2023-04-24T08:59:11;7.13;;;2.70;;
295;SDS011;132;48.770;9.200;2023-04-24T09:01:38;3.77;;;3.60;;
295;SDS011;132;48.770;9.200;2023-04-24T09:04:09;7.37;;;2.40;;
295;SDS011;132;48.770;9.200;2023-04-24T09:06:38;5.80;;;2.57;;
295;SDS011;132;48.770;9.200;2023-04-24T09:09:05;3.70;;;2.70;;
295;SDS011;132;48.770;9.200;2023-04-24T09:11:32;6.67;;;2.60;;
295;SDS011;132;48.770;9.200;2023-04-24T09:14:06;4.00;;;2.77;;
295;SDS011;132;48.770;9.200;2023-04-24T09:16:33;5.53;;;2.63;;
295;SDS011;132;48.770;9.200;2023-04-24T09:19:00;3.53;;;2.50;;
295;SDS011;132;48.770;9.200;2023-04-24T09:21:32;4.80;;;2.47;;
295;SDS011;132;48.770;9.200;2023-04-24T09:24:00;4.13;;;2.80;;
295;SDS011;132;48.770;9.200;2023-04-24T09:26:29;5.30;;;2.77;;
295;SDS011;132;48.770;9.200;2023-04-24T09:29:00;2.60;;;2.30;;
295;SDS011;132;48.770;9.200;2023-04-24T09:31:27;4.10;;;2.30;;
295;SDS011;132;48.770;9.200;2023-04-24T09:36:32;2.50;;;2.30;;
295;SDS011;132;48.770;9.200;2023-04-24T09:39:00;5.10;;;2.33;;
295;SDS011;132;48.770;9.200;2023-04-24T09:41:31;4.60;;;2.60;;
295;SDS011;132;48.770;9.200;2023-04-24T09:44:10;3.50;;;2.40;;
295;SDS011;132;48.770;9.200;2023-04-24T09:47:39;4.97;;;4.67;;
295;SDS011;132;48.770;9.200;2023-04-24T09:51:01;6.77;;;2.63;;
295;SDS011;132;48.770;9.200;2023-04-24T09:53:32;6.43;;;2.50;;
295;SDS011;132;48.770;9.200;2023-04-24T09:56:08;5.60;;;2.40;;
295;SDS011;132;48.770;9.200;2023-04-24T09:58:45;3.10;;;2.60;;
295;SDS011;132;48.770;9.200;2023-04-24T10:01:13;3.73;;;2.50;;
295;SDS011;132;48.770;9.200;2023-04-24T10:03:39;4.63;;;2.30;;
295;SDS011;132;48.770;9.200;2023-04-24T10:06:11;5.83;;;2.23;;
295;SDS011;132;48.770;9.200;2023-04-24T10:08:41;3.37;;;2.40;;
295;SDS011;132;48.770;9.200;2023-04-24T10:11:08;2.63;;;2.17;;
295;SDS011;132;48.770;9.200;2023-04-24T10:13:37;3.70;;;2.30;;
295;SDS011;132;48.770;9.200;2023-04-24T10:16:04;5.63;;;3.87;;
295;SDS011;132;48.770;9.200;2023-04-24T10:18:34;160.50;;;152.80;;
295;SDS011;132;48.770;9.200;2023-04-24T10:21:01;180.90;;;172.23;;
295;SDS011;132;48.770;9.200;2023-04-24T10:23:28;218.17;;;207.73;;
295;SDS011;132;48.770;9.200;2023-04-24T10:25:59;257.37;;;245.07;;
295;SDS011;132;48.770;9.200;2023-04-24T10:28:29;315.37;;;300.33;;
295;SDS011;132;48.770;9.200;2023-04-24T10:30:58;432.00;;;411.40;;
295;SDS011;132;48.770;9.200;2023-04-24T10:33:25;3.20;;;2.90;;
295;SDS011;132;48.770;9.200;2023-04-24T10:35:58;2.47;;;2.03;;
295;SDS011;132;48.770;9.200;2023-04-24T10:38:25;8.17;;;2.17;;
295;SDS011;132;48.770;9.200;2023-04-24T10:41:08;2.40;;;2.17;;
295;SDS011;132;48.770;9.200;2023-04-24T10:43:35;2.80;;;2.10;;
295;SDS011;132;48.770;9.200;2023-04-24T10:46:05;2.77;;;1.93;;
295;SDS011;132;48.770;9.200;2023-04-24T10:48:33;3.70;;;2.30;;
295;SDS011;132;48.770;9.200;2023-04-24T10:51:02;2.80;;;2.10;;
295;SDS011;132;48.770;9.200;2023-04-24T10:53:29;2.87;;;2.00;;
295;SDS011;132;48.770;9.200;2023-04-24T10:58:24;2.70;;;1.90;;
295;SDS011;132;48.770;9.200;2023-04-24T11:00:57;2.27;;;1.83;;
295;SDS011;132;48.770;9.200;2023-04-24T11:03:29;3.57;;;2.20;;
295;SDS011;132;48.770;9.200;2023-04-24T11:06:01;2.50;;;2.10;;
295;SDS011;132;48.770;9.200;2023-04-24T11:08:44;3.10;;;2.10;;
295;SDS011;132;48.770;9.200;2023-04-24T11:11:13;2.80;;;2.10;;
295;SDS011;132;48.770;9.200;2023-04-24T11:16:29;4.47;;;1.60;;
295;SDS011;132;48.770;9.200;2023-04-24T11:21:43;2.30;;;2.13;;
